createdAt,value
2018-03-22T00:01:45.117Z,89.00
2018-03-22T00:04:13.491Z,88.90
2018-03-22T00:06:41.890Z,89.40
2018-03-22T00:09:10.923Z,87.90
2018-03-22T00:11:38.878Z,87.50
2018-03-22T00:14:07.371Z,87.60
2018-03-22T00:16:35.034Z,87.40
2018-03-22T00:19:02.648Z,86.70
2018-03-22T00:21:30.196Z,86.40
2018-03-22T00:23:57.756Z,86.60
2018-03-22T00:26:27.448Z,86.60
2018-03-22T00:28:55.921Z,85.40
2018-03-22T00:31:47.065Z,86.20
2018-03-22T00:34:15.131Z,86.40
2018-03-22T00:36:44.606Z,86.90
2018-03-22T00:39:17.502Z,87.60
2018-03-22T00:41:45.098Z,88.30
2018-03-22T00:44:13.396Z,89.10
2018-03-22T00:46:41.353Z,89.20
2018-03-22T00:49:09.702Z,90.00
2018-03-22T00:51:37.710Z,90.00
2018-03-22T00:54:05.673Z,90.20
2018-03-22T00:56:33.162Z,90.50
2018-03-22T00:59:00.689Z,90.40
2018-03-22T01:01:29.013Z,90.60
2018-03-22T01:03:56.545Z,90.90
2018-03-22T01:06:24.500Z,91.00
2018-03-22T01:08:52.105Z,91.00
2018-03-22T01:11:19.707Z,91.10
2018-03-22T01:13:47.270Z,91.10
2018-03-22T01:16:14.803Z,91.20
2018-03-22T01:18:42.351Z,91.30
2018-03-22T01:21:10.282Z,91.30
2018-03-22T01:23:48.643Z,91.20
2018-03-22T01:26:25.576Z,91.10
2018-03-22T01:28:54.783Z,91.50
2018-03-22T01:31:22.407Z,91.20
2018-03-22T01:33:50.450Z,91.00
2018-03-22T01:36:18.382Z,90.90
2018-03-22T01:38:46.875Z,90.80
2018-03-22T01:41:15.041Z,90.50
2018-03-22T01:43:48.155Z,90.70
2018-03-22T01:46:17.695Z,90.10
2018-03-22T01:48:45.765Z,89.80
2018-03-22T01:51:13.422Z,89.20
2018-03-22T01:53:41.417Z,89.40
2018-03-22T01:56:08.990Z,89.10
2018-03-22T01:58:37.018Z,88.90
2018-03-22T02:01:04.556Z,88.90
2018-03-22T02:03:33.362Z,88.00
2018-03-22T02:06:01.043Z,88.00
2018-03-22T02:08:28.564Z,88.20
2018-03-22T02:10:56.107Z,88.50
2018-03-22T02:13:23.688Z,89.40
2018-03-22T02:15:59.010Z,89.20
2018-03-22T02:18:26.540Z,89.50
2018-03-22T02:20:54.103Z,89.90
2018-03-22T02:23:22.449Z,90.00
2018-03-22T02:25:50.086Z,90.00
2018-03-22T02:28:18.044Z,90.00
2018-03-22T02:30:45.594Z,90.00
2018-03-22T02:33:13.218Z,89.40
2018-03-22T02:35:40.842Z,89.20
2018-03-22T02:38:08.793Z,89.50
2018-03-22T02:40:36.351Z,89.70
2018-03-22T02:43:04.235Z,89.80
2018-03-22T02:45:32.126Z,90.00
2018-03-22T02:47:59.612Z,90.00
2018-03-22T02:50:27.492Z,90.00
2018-03-22T02:52:55.744Z,90.00
2018-03-22T02:55:23.282Z,90.10
2018-03-22T02:57:50.755Z,90.10
2018-03-22T03:00:19.030Z,90.10
2018-03-22T03:02:47.239Z,90.00
2018-03-22T03:05:15.457Z,90.10
2018-03-22T03:07:42.924Z,89.40
2018-03-22T03:10:10.780Z,89.70
2018-03-22T03:12:39.003Z,90.10
2018-03-22T03:15:06.471Z,89.40
2018-03-22T03:17:34.705Z,89.70
2018-03-22T03:20:02.916Z,90.00
2018-03-22T03:22:31.182Z,89.30
2018-03-22T03:24:58.702Z,89.40
2018-03-22T03:27:26.952Z,89.20
2018-03-22T03:29:54.452Z,89.30
2018-03-22T03:32:21.895Z,89.50
2018-03-22T03:35:18.533Z,89.10
2018-03-22T03:37:45.976Z,89.30
2018-03-22T03:40:13.863Z,88.20
2018-03-22T03:42:41.746Z,88.30
2018-03-22T03:45:09.190Z,88.30
2018-03-22T03:47:36.656Z,88.60
2018-03-22T03:50:04.120Z,88.50
2018-03-22T03:52:31.583Z,88.30
2018-03-22T03:54:59.856Z,88.50
2018-03-22T03:57:28.128Z,87.60
2018-03-22T03:59:55.593Z,88.10
2018-03-22T04:02:24.749Z,88.40
2018-03-22T04:04:52.893Z,88.40
2018-03-22T04:10:38.136Z,87.50
2018-03-22T04:13:05.596Z,86.80
2018-03-22T04:15:33.085Z,86.20
2018-03-22T04:18:00.544Z,85.70
2018-03-22T04:20:28.035Z,85.60
2018-03-22T04:22:55.475Z,85.20
2018-03-22T04:25:22.931Z,84.90
2018-03-22T04:30:45.056Z,84.60
2018-03-22T04:33:18.839Z,85.00
2018-03-22T04:35:46.387Z,84.50
2018-03-22T04:38:48.174Z,83.90
2018-03-22T04:44:13.752Z,83.30
2018-03-22T04:46:47.751Z,83.50
2018-03-22T04:49:15.205Z,83.60
2018-03-22T04:51:43.435Z,84.80
2018-03-22T04:54:10.984Z,83.20
2018-03-22T04:56:38.455Z,82.40
2018-03-22T04:59:05.895Z,82.80
2018-03-22T05:01:33.377Z,82.70
2018-03-22T05:04:00.804Z,82.50
2018-03-22T05:06:28.651Z,82.50
2018-03-22T05:08:56.103Z,83.60
2018-03-22T05:11:23.555Z,83.30
2018-03-22T05:13:57.960Z,82.90
2018-03-22T05:16:25.489Z,82.40
2018-03-22T05:19:16.592Z,82.50
2018-03-22T05:21:44.092Z,82.50
2018-03-22T05:24:12.309Z,82.30
2018-03-22T05:26:40.518Z,82.10
2018-03-22T05:29:09.021Z,82.10
2018-03-22T05:31:36.488Z,82.20
2018-03-22T05:34:03.998Z,82.30
2018-03-22T05:36:47.591Z,82.40
2018-03-22T05:39:15.162Z,82.20
2018-03-22T05:41:42.623Z,82.50
2018-03-22T05:44:10.836Z,83.10
2018-03-22T05:46:40.451Z,82.30
2018-03-22T05:49:08.742Z,82.70
2018-03-22T05:51:36.948Z,82.10
2018-03-22T05:54:05.339Z,82.00
2018-03-22T05:56:46.492Z,81.80
2018-03-22T05:59:14.707Z,82.40
2018-03-22T06:01:42.183Z,81.80
2018-03-22T06:04:09.651Z,81.70
2018-03-22T06:06:37.118Z,82.30
2018-03-22T06:09:17.632Z,82.10
2018-03-22T06:11:45.501Z,81.90
2018-03-22T06:14:12.971Z,82.00
2018-03-22T06:16:40.444Z,81.80
2018-03-22T06:19:08.283Z,81.90
2018-03-22T06:21:36.140Z,82.00
2018-03-22T06:24:04.375Z,83.10
2018-03-22T06:26:31.897Z,83.10
2018-03-22T06:29:00.132Z,84.50
2018-03-22T06:31:27.606Z,84.40
2018-03-22T06:33:55.444Z,85.40
2018-03-22T06:36:22.887Z,86.50
2018-03-22T06:38:51.105Z,88.10
2018-03-22T06:41:18.554Z,88.50
2018-03-22T06:43:46.428Z,89.60
2018-03-22T06:46:14.643Z,90.80
2018-03-22T06:48:42.493Z,91.90
2018-03-22T06:51:10.716Z,92.50
2018-03-22T06:53:38.234Z,93.30
2018-03-22T06:56:05.719Z,94.20
2018-03-22T06:58:33.234Z,94.80
2018-03-22T07:01:00.725Z,95.30
2018-03-22T07:03:29.009Z,95.90
2018-03-22T07:05:57.226Z,96.40
2018-03-22T07:08:25.442Z,96.90
2018-03-22T07:13:46.895Z,97.50
2018-03-22T07:16:14.337Z,97.80
2018-03-22T07:18:42.566Z,98.20
2018-03-22T07:21:10.847Z,98.10
2018-03-22T07:23:38.308Z,98.10
2018-03-22T07:26:05.923Z,98.10
2018-03-22T07:28:33.761Z,98.20
2018-03-22T07:31:01.975Z,98.30
2018-03-22T07:33:29.423Z,98.70
2018-03-22T07:35:56.911Z,98.90
2018-03-22T07:38:24.385Z,98.90
2018-03-22T07:40:59.498Z,99.20
2018-03-22T07:43:32.849Z,99.40
2018-03-22T07:46:00.351Z,99.70
2018-03-22T07:48:28.207Z,99.80
2018-03-22T07:50:55.651Z,99.80
2018-03-22T07:53:23.116Z,99.40
2018-03-22T07:56:10.800Z,99.50
2018-03-22T07:58:38.795Z,99.50
2018-03-22T08:01:07.023Z,99.80
2018-03-22T08:06:37.816Z,99.80
2018-03-22T08:09:17.432Z,99.80
2018-03-22T08:11:45.388Z,99.90
2018-03-22T08:14:13.635Z,99.90
2018-03-22T08:16:41.881Z,99.90
2018-03-22T08:19:09.730Z,99.90
2018-03-22T08:21:37.267Z,99.90
2018-03-22T08:24:08.658Z,99.90
2018-03-22T08:26:36.171Z,99.90
2018-03-22T08:29:03.654Z,99.90
2018-03-22T08:31:31.133Z,99.90
2018-03-22T08:33:58.580Z,99.90
2018-03-22T08:36:35.595Z,99.90
2018-03-22T08:39:04.603Z,99.90
2018-03-22T08:44:20.603Z,99.90
2018-03-22T08:46:48.051Z,99.90
2018-03-22T08:49:15.917Z,99.90
2018-03-22T08:51:44.151Z,99.90
2018-03-22T08:54:11.623Z,99.90
2018-03-22T08:56:39.078Z,99.90
2018-03-22T08:59:17.177Z,99.90
2018-03-22T09:01:45.038Z,99.90
2018-03-22T09:04:12.934Z,99.90
2018-03-22T09:09:46.802Z,99.80
2018-03-22T09:18:11.957Z,99.80
2018-03-22T09:20:39.428Z,99.50
2018-03-22T09:23:07.731Z,99.40
2018-03-22T09:28:33.641Z,99.00
2018-03-22T09:31:01.091Z,98.90
2018-03-22T09:33:28.567Z,99.10
2018-03-22T09:35:56.034Z,99.10
2018-03-22T09:38:23.488Z,98.80
2018-03-22T09:41:17.367Z,98.50
2018-03-22T09:43:45.621Z,98.50
2018-03-22T09:46:17.723Z,98.70
2018-03-22T09:48:45.214Z,98.60
2018-03-22T09:51:19.903Z,98.70
2018-03-22T09:53:50.740Z,98.60
2018-03-22T09:56:38.272Z,98.90
2018-03-22T09:59:05.716Z,98.20
2018-03-22T10:01:47.513Z,97.90
2018-03-22T10:04:15.508Z,98.30
2018-03-22T10:06:42.928Z,98.20
2018-03-22T10:09:10.367Z,98.30
2018-03-22T10:11:37.829Z,98.00
2018-03-22T10:14:05.295Z,98.40
2018-03-22T10:16:32.781Z,98.50
2018-03-22T10:19:00.219Z,98.70
2018-03-22T10:21:27.679Z,99.00
2018-03-22T10:23:55.148Z,98.90
2018-03-22T10:26:22.591Z,99.10
2018-03-22T10:28:50.842Z,99.60
2018-03-22T10:37:24.537Z,99.90
2018-03-22T10:42:55.188Z,98.30
2018-03-22T10:45:22.642Z,98.90
2018-03-22T10:47:50.096Z,99.00
2018-03-22T10:50:17.536Z,99.50
2018-03-22T10:52:49.004Z,98.20
2018-03-22T10:55:16.563Z,98.50
2018-03-22T10:57:44.412Z,98.50
2018-03-22T11:06:19.781Z,98.90
2018-03-22T11:08:47.987Z,99.10
2018-03-22T11:11:15.825Z,99.10
2018-03-22T11:13:49.821Z,98.60
2018-03-22T11:16:17.259Z,99.00
2018-03-22T11:18:44.707Z,99.00
2018-03-22T11:21:12.923Z,99.70
2018-03-22T11:23:48.176Z,99.40
2018-03-22T11:26:15.641Z,99.30
2018-03-22T11:28:43.114Z,99.20
2018-03-22T11:31:10.607Z,99.40
2018-03-22T11:33:38.479Z,99.20
2018-03-22T11:36:05.953Z,98.80
2018-03-22T11:38:33.423Z,99.10
2018-03-22T11:41:01.695Z,99.90
2018-03-22T11:43:29.154Z,99.00
2018-03-22T11:45:56.644Z,98.60
2018-03-22T11:48:24.112Z,99.00
2018-03-22T11:51:17.597Z,99.00
2018-03-22T11:53:45.117Z,98.70
2018-03-22T11:56:12.516Z,98.60
2018-03-22T11:58:39.983Z,98.70
2018-03-22T12:04:00.312Z,98.90
2018-03-22T12:06:27.780Z,98.90
2018-03-22T12:08:55.225Z,98.50
2018-03-22T12:11:23.440Z,98.90
2018-03-22T12:14:03.832Z,98.90
2018-03-22T12:16:31.701Z,98.90
2018-03-22T12:22:02.611Z,99.00
2018-03-22T12:24:30.547Z,98.90
2018-03-22T12:26:57.935Z,98.60
2018-03-22T12:29:36.195Z,98.30
2018-03-22T12:32:03.810Z,98.40
2018-03-22T12:34:31.259Z,98.80
2018-03-22T12:40:00.112Z,97.80
2018-03-22T12:42:27.577Z,97.80
2018-03-22T12:44:55.008Z,97.10
2018-03-22T12:47:22.856Z,97.70
2018-03-22T12:49:50.298Z,97.50
2018-03-22T12:52:20.542Z,97.60
2018-03-22T13:00:45.052Z,97.30
2018-03-22T13:03:13.274Z,97.60
2018-03-22T13:05:48.214Z,97.50
2018-03-22T13:08:15.692Z,97.50
2018-03-22T13:10:43.135Z,97.30
2018-03-22T13:21:07.155Z,97.60
2018-03-22T13:23:34.637Z,97.70
2018-03-22T13:28:36.000Z,97.70
2018-03-22T13:31:18.381Z,97.80
2018-03-22T13:33:46.729Z,97.70
2018-03-22T13:36:14.181Z,97.50
2018-03-22T13:38:41.622Z,97.60
2018-03-22T13:41:12.118Z,98.00
2018-03-22T13:43:47.584Z,98.00
2018-03-22T13:46:15.800Z,97.80
2018-03-22T13:48:44.036Z,98.10
2018-03-22T13:51:12.325Z,98.00
2018-03-22T13:53:39.781Z,98.10
2018-03-22T14:03:13.160Z,98.50
2018-03-22T14:05:40.783Z,98.50
2018-03-22T14:08:08.246Z,98.50
2018-03-22T14:10:47.841Z,98.60
2018-03-22T14:13:18.706Z,98.50
2018-03-22T14:35:35.511Z,99.60
2018-03-22T14:38:03.388Z,99.50
2018-03-22T14:40:30.843Z,99.50
2018-03-22T14:42:58.317Z,99.50
2018-03-22T14:45:25.766Z,98.90
2018-03-22T14:47:53.615Z,98.50
2018-03-22T14:50:21.087Z,98.10
2018-03-22T14:52:48.545Z,97.40
2018-03-22T14:55:16.010Z,97.20
2018-03-22T14:58:03.661Z,97.70
2018-03-22T15:00:31.169Z,98.00
2018-03-22T15:03:12.509Z,97.60
2018-03-22T15:05:46.881Z,97.50
2018-03-22T15:08:14.504Z,97.60
2018-03-22T15:10:42.726Z,98.00
2018-03-22T15:13:10.212Z,97.50
2018-03-22T15:15:37.680Z,97.40
2018-03-22T15:18:05.230Z,97.50
2018-03-22T15:20:33.078Z,97.60
2018-03-22T15:23:00.538Z,97.30
2018-03-22T15:28:40.882Z,97.40
2018-03-22T15:31:08.921Z,97.50
2018-03-22T15:33:36.392Z,97.70
2018-03-22T15:38:42.190Z,98.10
2018-03-22T15:41:10.398Z,97.90
2018-03-22T15:43:37.907Z,97.60
2018-03-22T15:46:11.408Z,98.00
2018-03-22T15:48:38.938Z,97.80
2018-03-22T15:51:06.684Z,97.80
2018-03-22T15:53:34.208Z,97.70
2018-03-22T15:56:01.674Z,97.80
2018-03-22T15:58:29.194Z,97.60
2018-03-22T16:00:56.667Z,97.80
2018-03-22T16:03:24.118Z,97.10
2018-03-22T16:05:51.862Z,97.50
2018-03-22T16:08:19.503Z,97.10
2018-03-22T16:10:49.165Z,97.00
2018-03-22T16:13:17.937Z,97.20
2018-03-22T16:15:45.396Z,97.10
2018-03-22T16:18:13.634Z,97.30
2018-03-22T16:20:41.099Z,96.90
2018-03-22T16:23:08.565Z,97.00
2018-03-22T16:25:36.028Z,96.90
2018-03-22T16:28:20.079Z,97.20
2018-03-22T16:30:47.608Z,97.20
2018-03-22T16:33:15.060Z,97.20
2018-03-22T16:35:42.558Z,97.40
2018-03-22T16:38:10.016Z,97.70
2018-03-22T16:40:46.776Z,97.50
2018-03-22T16:43:15.001Z,98.10
2018-03-22T16:45:42.852Z,98.30
2018-03-22T16:48:10.721Z,98.70
2018-03-22T16:50:38.210Z,98.80
2018-03-22T16:55:58.663Z,99.60
2018-03-22T16:58:29.446Z,99.70
2018-03-22T17:01:12.762Z,99.70
2018-03-22T17:03:40.276Z,99.90
2018-03-22T17:06:07.778Z,99.90
2018-03-22T17:08:36.043Z,99.90
2018-03-22T17:11:03.503Z,99.90
2018-03-22T17:13:31.739Z,99.90
2018-03-22T17:16:02.301Z,99.90
2018-03-22T17:18:50.499Z,99.90
2018-03-22T17:21:18.760Z,99.90
2018-03-22T17:23:49.633Z,99.90
2018-03-22T17:26:18.131Z,99.90
2018-03-22T17:28:49.911Z,99.90
2018-03-22T17:31:17.428Z,99.90
2018-03-22T17:33:48.197Z,99.90
2018-03-22T17:39:54.409Z,99.90
2018-03-22T17:42:21.873Z,99.90
2018-03-22T17:44:49.745Z,99.90
2018-03-22T17:47:37.195Z,99.90
2018-03-22T17:50:05.407Z,99.90
2018-03-22T17:52:49.618Z,99.90
2018-03-22T17:55:17.862Z,99.90
2018-03-22T18:00:21.324Z,99.90
2018-03-22T18:02:48.788Z,99.90
2018-03-22T18:05:17.673Z,99.90
2018-03-22T18:07:45.195Z,99.90
2018-03-22T18:10:13.050Z,99.90
2018-03-22T18:15:44.030Z,99.90
2018-03-22T18:18:30.644Z,99.90
2018-03-22T18:20:58.100Z,99.90
2018-03-22T18:23:25.577Z,99.90
2018-03-22T18:25:53.120Z,99.90
2018-03-22T18:28:20.717Z,99.90
2018-03-22T18:30:48.972Z,99.90
2018-03-22T18:36:21.832Z,99.90
2018-03-22T18:38:51.023Z,99.90
2018-03-22T18:41:18.490Z,99.90
2018-03-22T18:43:46.744Z,99.90
2018-03-22T18:46:14.616Z,99.90
2018-03-22T18:51:48.043Z,99.90
2018-03-22T18:57:19.225Z,99.90
2018-03-22T19:00:08.312Z,99.90
2018-03-22T19:02:36.167Z,99.90
2018-03-22T19:05:05.028Z,99.90
2018-03-22T19:07:32.523Z,99.90
2018-03-22T19:13:03.942Z,99.90
2018-03-22T19:15:33.057Z,99.90
2018-03-22T19:18:20.505Z,99.90
2018-03-22T19:20:48.022Z,99.90
2018-03-22T19:26:20.968Z,99.90
2018-03-22T19:28:49.021Z,99.90
2018-03-22T19:52:09.723Z,99.90
2018-03-22T19:57:30.963Z,99.90
2018-03-22T19:59:58.491Z,99.90
2018-03-22T20:14:14.590Z,99.90
2018-03-22T20:19:45.197Z,99.90
2018-03-22T20:22:36.935Z,99.90
2018-03-22T20:34:07.501Z,99.90
2018-03-22T20:36:34.978Z,99.90
2018-03-22T20:42:16.534Z,99.90
2018-03-22T20:44:45.116Z,99.90
2018-03-22T20:47:12.658Z,99.90
2018-03-22T20:49:40.564Z,99.90
2018-03-22T20:52:08.528Z,99.90
2018-03-22T20:54:36.841Z,99.90
2018-03-22T20:57:06.928Z,99.90
2018-03-22T20:59:35.436Z,99.90
2018-03-22T21:02:20.382Z,99.90
2018-03-22T21:04:48.763Z,99.90
2018-03-22T21:07:16.776Z,99.90
2018-03-22T21:09:44.799Z,99.90
2018-03-22T21:12:12.719Z,99.90
2018-03-22T21:14:40.775Z,99.90
2018-03-22T21:17:08.751Z,99.90
2018-03-22T21:19:36.717Z,99.80
2018-03-22T21:22:12.319Z,99.90
2018-03-22T21:24:45.838Z,99.80
2018-03-22T21:27:19.876Z,99.80
2018-03-22T21:32:44.207Z,99.80
2018-03-22T21:41:06.892Z,99.70
2018-03-22T21:43:35.196Z,99.90
2018-03-22T21:46:02.666Z,99.70
2018-03-22T21:48:30.190Z,99.60
2018-03-22T21:51:00.335Z,99.80
2018-03-22T21:53:28.558Z,99.80
2018-03-22T21:58:50.326Z,99.60
2018-03-22T22:01:19.121Z,99.90
2018-03-22T22:03:46.668Z,99.70
2018-03-22T22:06:14.881Z,99.80
2018-03-22T22:08:42.337Z,99.50
2018-03-22T22:11:09.903Z,99.40
2018-03-22T22:13:38.172Z,99.80
2018-03-22T22:16:05.629Z,99.40
2018-03-22T22:18:33.448Z,99.50
2018-03-22T22:21:01.066Z,99.50
2018-03-22T22:23:28.596Z,99.90
2018-03-22T22:25:56.048Z,99.30
2018-03-22T22:28:47.092Z,99.40
2018-03-22T22:31:14.947Z,99.30
2018-03-22T22:33:42.492Z,99.40
2018-03-22T22:36:10.732Z,99.60
2018-03-22T22:38:38.175Z,99.40
2018-03-22T22:41:06.447Z,99.60
2018-03-22T22:46:36.331Z,99.30
2018-03-22T22:49:03.792Z,99.40
2018-03-22T22:51:31.624Z,99.50
2018-03-22T22:53:59.076Z,99.40
2018-03-22T22:56:32.682Z,99.50
2018-03-22T22:59:12.647Z,99.40
2018-03-22T23:01:40.264Z,99.30
2018-03-22T23:04:15.981Z,99.30
2018-03-22T23:06:43.421Z,99.30
2018-03-22T23:09:10.876Z,99.40
2018-03-22T23:11:38.416Z,99.30
2018-03-22T23:14:17.755Z,99.20
2018-03-22T23:16:46.869Z,99.50
2018-03-22T23:19:14.300Z,99.30
2018-03-22T23:21:41.750Z,99.40
2018-03-22T23:24:09.219Z,99.20
2018-03-22T23:26:36.718Z,99.70
2018-03-22T23:31:37.416Z,99.20
2018-03-22T23:34:04.874Z,99.30
2018-03-22T23:36:35.221Z,99.10
2018-03-22T23:39:03.499Z,99.50
2018-03-22T23:41:30.957Z,99.30
2018-03-22T23:43:58.403Z,99.30
2018-03-22T23:46:27.920Z,99.20
2018-03-22T23:48:56.998Z,99.20
2018-03-22T23:51:24.525Z,99.20
2018-03-22T23:53:51.987Z,99.10
2018-03-22T23:56:19.481Z,99.10
2018-03-22T23:58:46.929Z,99.00
